Time;durP1;ratioP1;P1;durP2;ratioP2;P2;SDS_P1;SDS_P2;PMS_P1;PMS_P2;Temp;Humidity;BMP_temperature;BMP_pressure;BME280_temperature;BME280_humidity;BME280_pressure;Samples;Min_cycle;Max_cycle;Signal;HPM_P1;HPM_P2
2022/09/08 00:01:29;;;;;;;3.38;1.90;;;;;;;;;;10487197;28;20036;-77
2022/09/08 00:06:32;;;;;;;4.97;1.70;;;;;;;;;;10491418;28;20037;-75
2022/09/08 00:11:36;;;;;;;5.65;2.22;;;;;;;;;;10482129;28;20131;-76
2022/09/08 00:16:41;;;;;;;4.18;1.80;;;;;;;;;;10485241;28;20482;-76
2022/09/08 00:21:44;;;;;;;3.17;1.90;;;;;;;;;;10486268;28;20033;-75
2022/09/08 00:26:47;;;;;;;2.42;0.93;;;;;;;;;;10486077;28;20094;-76
2022/09/08 00:31:51;;;;;;;2.73;1.13;;;;;;;;;;10468999;28;20141;-74
2022/09/08 00:36:56;;;;;;;5.13;2.20;;;;;;;;;;10485498;28;20443;-75
2022/09/08 00:41:59;;;;;;;5.25;1.60;;;;;;;;;;10475297;28;20040;-76
2022/09/08 00:47:03;;;;;;;4.53;1.80;;;;;;;;;;10486862;28;20101;-75
2022/09/08 00:52:06;;;;;;;4.28;2.08;;;;;;;;;;10489315;28;20110;-75
2022/09/08 00:57:09;;;;;;;5.70;2.15;;;;;;;;;;10478156;28;20631;-74
2022/09/08 01:02:22;;;;;;;3.70;2.05;;;;;;;;;;10479407;28;20162;-76
2022/09/08 01:12:57;;;;;;;5.25;2.00;;;;;;;;;;10482158;28;20071;-74
2022/09/08 01:18:03;;;;;;;2.88;1.55;;;;;;;;;;10479833;28;20051;-75
2022/09/08 01:23:27;;;;;;;4.28;2.20;;;;;;;;;;10464962;28;20044;-74
2022/09/08 01:28:34;;;;;;;7.22;2.28;;;;;;;;;;10485586;28;20040;-75
2022/09/08 01:33:38;;;;;;;5.30;2.08;;;;;;;;;;10485731;28;20025;-75
2022/09/08 01:38:42;;;;;;;3.55;2.00;;;;;;;;;;10485586;28;20075;-75
2022/09/08 01:43:46;;;;;;;4.90;1.60;;;;;;;;;;10484206;28;20036;-75
2022/09/08 01:48:49;;;;;;;3.35;1.55;;;;;;;;;;10489378;28;20048;-75
2022/09/08 01:53:51;;;;;;;5.38;2.00;;;;;;;;;;10480924;28;20044;-75
2022/09/08 01:58:55;;;;;;;1.80;1.40;;;;;;;;;;10487603;28;20041;-75
2022/09/08 02:03:58;;;;;;;3.63;1.70;;;;;;;;;;10483135;28;20044;-75
2022/09/08 02:09:01;;;;;;;1.67;1.08;;;;;;;;;;10480510;28;20509;-75
2022/09/08 02:14:05;;;;;;;1.97;1.40;;;;;;;;;;10482092;28;20044;-74
2022/09/08 02:19:08;;;;;;;2.55;1.38;;;;;;;;;;10484498;28;20059;-75
2022/09/08 02:24:11;;;;;;;4.00;1.57;;;;;;;;;;10485051;28;20183;-77
2022/09/08 02:29:15;;;;;;;1.25;1.13;;;;;;;;;;10467807;28;20294;-78
2022/09/08 02:34:18;;;;;;;2.42;1.05;;;;;;;;;;10482202;28;20033;-78
2022/09/08 02:39:21;;;;;;;1.52;1.00;;;;;;;;;;10480951;28;20125;-77
2022/09/08 02:44:26;;;;;;;3.45;1.23;;;;;;;;;;10482456;28;20036;-78
2022/09/08 02:49:30;;;;;;;1.80;1.27;;;;;;;;;;10485729;28;20047;-77
2022/09/08 02:54:33;;;;;;;3.15;1.02;;;;;;;;;;10487689;28;20064;-77
2022/09/08 02:59:37;;;;;;;1.27;1.00;;;;;;;;;;10481751;28;20044;-74
2022/09/08 03:04:39;;;;;;;3.42;1.33;;;;;;;;;;10483760;28;20094;-75
2022/09/08 03:09:42;;;;;;;4.82;1.15;;;;;;;;;;10481000;28;20083;-75
2022/09/08 03:14:46;;;;;;;3.33;1.10;;;;;;;;;;10487176;28;20043;-76
2022/09/08 03:19:50;;;;;;;1.30;1.00;;;;;;;;;;10484943;28;20047;-75
2022/09/08 03:24:52;;;;;;;;;;;;;;;;;;10482819;28;20045;-74
2022/09/08 03:29:56;;;;;;;2.08;1.08;;;;;;;;;;10481396;28;19920;-74
2022/09/08 03:34:59;;;;;;;1.73;1.35;;;;;;;;;;10482051;28;20505;-75
2022/09/08 03:40:03;;;;;;;2.00;1.00;;;;;;;;;;10483223;28;20150;-75
2022/09/08 03:45:11;;;;;;;2.97;0.90;;;;;;;;;;10477427;28;20068;-75
2022/09/08 03:50:15;;;;;;;2.78;1.30;;;;;;;;;;10483431;28;20055;-76
2022/09/08 03:55:18;;;;;;;3.53;1.30;;;;;;;;;;10483371;28;20413;-76
2022/09/08 04:00:22;;;;;;;1.80;1.10;;;;;;;;;;10489585;28;20048;-76
2022/09/08 04:05:25;;;;;;;1.27;0.98;;;;;;;;;;10483958;28;20044;-76
2022/09/08 04:10:28;;;;;;;3.17;1.13;;;;;;;;;;10490363;28;20067;-74
2022/09/08 04:15:32;;;;;;;1.70;1.10;;;;;;;;;;10486269;28;20041;-75
2022/09/08 04:20:35;;;;;;;1.50;0.88;;;;;;;;;;10489664;28;20068;-75
2022/09/08 04:25:38;;;;;;;5.30;1.30;;;;;;;;;;10482633;28;20152;-75
2022/09/08 04:30:42;;;;;;;4.28;1.50;;;;;;;;;;10487938;28;20040;-76
2022/09/08 04:35:46;;;;;;;2.53;1.30;;;;;;;;;;10486017;28;20501;-75
2022/09/08 04:40:49;;;;;;;1.90;0.90;;;;;;;;;;10487046;28;20521;-76
2022/09/08 04:45:53;;;;;;;0.80;0.70;;;;;;;;;;10483605;28;20044;-75
2022/09/08 04:50:56;;;;;;;1.05;0.90;;;;;;;;;;10488299;28;20489;-74
2022/09/08 04:56:01;;;;;;;4.10;0.98;;;;;;;;;;10486066;28;20044;-74
2022/09/08 05:01:06;;;;;;;1.80;1.10;;;;;;;;;;10484744;28;20261;-76
2022/09/08 05:06:10;;;;;;;1.33;0.70;;;;;;;;;;10483184;28;20040;-76
2022/09/08 05:11:13;;;;;;;3.88;0.85;;;;;;;;;;10483858;28;20047;-75
2022/09/08 05:16:19;;;;;;;0.55;0.55;;;;;;;;;;10485186;28;20051;-75
2022/09/08 05:21:22;;;;;;;0.63;0.60;;;;;;;;;;10482661;28;20108;-77
2022/09/08 05:26:25;;;;;;;1.10;0.67;;;;;;;;;;10483727;28;20040;-76
2022/09/08 05:31:30;;;;;;;2.55;0.80;;;;;;;;;;10482722;28;20063;-75
2022/09/08 05:36:34;;;;;;;0.85;0.57;;;;;;;;;;10483715;28;20036;-77
2022/09/08 05:41:39;;;;;;;1.20;0.57;;;;;;;;;;10482994;28;20169;-77
2022/09/08 05:46:44;;;;;;;1.92;0.75;;;;;;;;;;10487547;28;20040;-78
2022/09/08 05:51:47;;;;;;;1.75;1.13;;;;;;;;;;10480949;28;20036;-77
2022/09/08 05:56:50;;;;;;;2.28;0.80;;;;;;;;;;10484731;28;20044;-76
2022/09/08 06:01:54;;;;;;;1.63;0.77;;;;;;;;;;10490431;28;20050;-75
2022/09/08 06:06:57;;;;;;;4.90;0.70;;;;;;;;;;10481661;28;20048;-77
2022/09/08 06:12:00;;;;;;;0.43;0.43;;;;;;;;;;10486681;28;20041;-76
2022/09/08 06:17:06;;;;;;;0.57;0.47;;;;;;;;;;10488770;28;20048;-76
2022/09/08 06:22:09;;;;;;;1.05;0.50;;;;;;;;;;10484428;28;20474;-75
2022/09/08 06:27:15;;;;;;;2.63;0.40;;;;;;;;;;10483591;28;20046;-74
2022/09/08 06:32:23;;;;;;;0.82;0.65;;;;;;;;;;10483994;28;20052;-75
2022/09/08 06:37:29;;;;;;;0.95;0.50;;;;;;;;;;10486067;28;20118;-75
2022/09/08 06:42:36;;;;;;;0.55;0.47;;;;;;;;;;10481261;28;20417;-75
2022/09/08 06:47:43;;;;;;;1.02;0.70;;;;;;;;;;10479839;28;20052;-76
2022/09/08 06:52:47;;;;;;;2.80;0.50;;;;;;;;;;10482359;28;20036;-76
2022/09/08 06:58:18;;;;;;;0.57;0.50;;;;;;;;;;10480855;28;20040;-75
2022/09/08 07:03:31;;;;;;;0.50;0.50;;;;;;;;;;10477288;28;20048;-75
2022/09/08 07:08:50;;;;;;;2.50;0.95;;;;;;;;;;10486112;28;20057;-76
2022/09/08 07:13:56;;;;;;;1.17;0.60;;;;;;;;;;10481896;28;20037;-75
2022/09/08 07:19:03;;;;;;;0.30;0.30;;;;;;;;;;10483018;28;20063;-75
2022/09/08 07:24:16;;;;;;;1.98;0.70;;;;;;;;;;10480305;28;20047;-75
2022/09/08 07:29:22;;;;;;;0.73;0.60;;;;;;;;;;10482934;28;20041;-75
2022/09/08 07:34:27;;;;;;;1.08;0.70;;;;;;;;;;10471347;28;20039;-75
2022/09/08 07:39:34;;;;;;;1.90;0.70;;;;;;;;;;10486957;28;20493;-75
2022/09/08 07:44:38;;;;;;;1.85;0.85;;;;;;;;;;10486270;28;20506;-75
2022/09/08 07:49:46;;;;;;;1.77;0.80;;;;;;;;;;10487783;28;20049;-74
2022/09/08 07:54:52;;;;;;;2.95;1.05;;;;;;;;;;10488242;28;20130;-74
2022/09/08 07:59:58;;;;;;;0.73;0.60;;;;;;;;;;10486317;28;20128;-74
2022/09/08 08:05:07;;;;;;;1.40;0.75;;;;;;;;;;10489403;28;20039;-73
2022/09/08 08:10:14;;;;;;;1.63;0.60;;;;;;;;;;10472816;28;20071;-75
2022/09/08 08:15:19;;;;;;;1.40;0.80;;;;;;;;;;10490140;28;20052;-75
2022/09/08 08:20:31;;;;;;;3.08;1.00;;;;;;;;;;10492827;28;20102;-74
2022/09/08 08:25:38;;;;;;;2.38;0.90;;;;;;;;;;10487972;28;20037;-75
2022/09/08 08:30:43;;;;;;;1.15;0.70;;;;;;;;;;10489219;28;20037;-74
2022/09/08 08:35:48;;;;;;;1.15;0.60;;;;;;;;;;10484960;28;20044;-73
2022/09/08 08:40:54;;;;;;;0.30;0.30;;;;;;;;;;10489458;28;20055;-75
2022/09/08 08:46:05;;;;;;;2.53;0.60;;;;;;;;;;10486082;28;20036;-76
2022/09/08 08:51:14;;;;;;;1.92;0.88;;;;;;;;;;10491627;28;20052;-76
2022/09/08 08:56:20;;;;;;;2.25;1.25;;;;;;;;;;10481688;28;20069;-76
2022/09/08 09:01:32;;;;;;;1.38;0.65;;;;;;;;;;10489056;28;20413;-75
2022/09/08 09:06:44;;;;;;;1.23;0.63;;;;;;;;;;10489010;28;20044;-77
2022/09/08 09:11:57;;;;;;;0.80;0.57;;;;;;;;;;10489753;28;20036;-75
2022/09/08 09:17:06;;;;;;;3.25;1.77;;;;;;;;;;10482210;28;20047;-75
2022/09/08 09:22:15;;;;;;;2.97;1.00;;;;;;;;;;10489056;28;20043;-76
2022/09/08 09:27:26;;;;;;;1.95;0.80;;;;;;;;;;10487265;28;20042;-76
2022/09/08 09:32:38;;;;;;;0.82;0.82;;;;;;;;;;10481980;28;20047;-75
2022/09/08 09:37:56;;;;;;;0.93;0.73;;;;;;;;;;10486050;28;20418;-74
2022/09/08 09:43:08;;;;;;;1.08;1.02;;;;;;;;;;10460635;28;20144;-74
2022/09/08 09:48:25;;;;;;;0.65;0.65;;;;;;;;;;10484241;28;20108;-75
2022/09/08 09:53:39;;;;;;;0.47;0.47;;;;;;;;;;10474250;28;20578;-75
2022/09/08 09:59:02;;;;;;;3.30;0.80;;;;;;;;;;10485734;28;20054;-76
2022/09/08 10:04:04;;;;;;;;;;;;;;;;;;10482228;28;20037;-75
2022/09/08 10:09:27;;;;;;;2.95;0.70;;;;;;;;;;10483394;28;20297;-75
2022/09/08 10:14:59;;;;;;;0.88;0.52;;;;;;;;;;10463231;28;20082;-76
2022/09/08 10:20:21;;;;;;;0.77;0.63;;;;;;;;;;10486538;28;20128;-76
2022/09/08 10:25:35;;;;;;;3.17;0.70;;;;;;;;;;10481129;28;20032;-76
2022/09/08 10:30:48;;;;;;;0.50;0.50;;;;;;;;;;10481138;28;20056;-76
2022/09/08 10:35:52;;;;;;;0.47;0.47;;;;;;;;;;10480067;28;20059;-75
2022/09/08 10:41:07;;;;;;;0.80;0.80;;;;;;;;;;10481448;28;20042;-75
2022/09/08 10:46:22;;;;;;;0.47;0.40;;;;;;;;;;10480107;28;20052;-75
2022/09/08 10:51:38;;;;;;;2.65;0.70;;;;;;;;;;10482626;28;20076;-75
2022/09/08 10:56:43;;;;;;;1.55;0.60;;;;;;;;;;10480045;28;20346;-75
2022/09/08 11:01:59;;;;;;;1.05;0.70;;;;;;;;;;10478008;28;20041;-75
2022/09/08 11:07:12;;;;;;;0.95;0.47;;;;;;;;;;10484879;28;20041;-75
2022/09/08 11:12:27;;;;;;;0.73;0.50;;;;;;;;;;10487300;28;20044;-75
2022/09/08 11:17:36;;;;;;;1.05;0.57;;;;;;;;;;10483343;28;20131;-76
2022/09/08 11:22:56;;;;;;;0.50;0.50;;;;;;;;;;10492136;28;20048;-75
2022/09/08 11:28:09;;;;;;;3.45;0.80;;;;;;;;;;10475862;28;20135;-75
2022/09/08 11:33:16;;;;;;;2.25;0.85;;;;;;;;;;10487773;28;20090;-74
2022/09/08 11:38:37;;;;;;;0.75;0.40;;;;;;;;;;10486772;28;20036;-74
2022/09/08 11:43:51;;;;;;;2.05;0.40;;;;;;;;;;10481654;28;20061;-74
2022/09/08 11:49:15;;;;;;;1.52;0.45;;;;;;;;;;10471623;28;20237;-74
2022/09/08 11:54:37;;;;;;;;;;;;;;;;;;10488316;28;20048;-74
2022/09/08 11:59:58;;;;;;;0.57;0.57;;;;;;;;;;10480439;28;19920;-75
2022/09/08 12:05:10;;;;;;;0.93;0.85;;;;;;;;;;10486557;28;20056;-75
2022/09/08 12:10:41;;;;;;;0.43;0.43;;;;;;;;;;10487214;28;20036;-76
2022/09/08 12:15:58;;;;;;;1.73;0.75;;;;;;;;;;10483653;28;20393;-76
2022/09/08 12:21:21;;;;;;;1.15;0.95;;;;;;;;;;10488502;28;20501;-75
2022/09/08 12:26:33;;;;;;;0.85;0.85;;;;;;;;;;10473337;28;20040;-74
2022/09/08 12:31:46;;;;;;;4.68;1.65;;;;;;;;;;10489847;28;20045;-75
2022/09/08 12:36:50;;;;;;;0.75;0.63;;;;;;;;;;10490638;28;20156;-74
2022/09/08 12:42:03;;;;;;;1.85;0.88;;;;;;;;;;10484267;28;20040;-75
2022/09/08 12:47:14;;;;;;;0.75;0.75;;;;;;;;;;10466296;28;20044;-76
2022/09/08 12:52:23;;;;;;;0.95;0.77;;;;;;;;;;10490214;28;20068;-76
2022/09/08 12:57:34;;;;;;;2.50;0.60;;;;;;;;;;10480807;28;20051;-75
2022/09/08 13:02:46;;;;;;;2.63;1.02;;;;;;;;;;10485900;28;20037;-75
2022/09/08 13:07:54;;;;;;;1.20;1.10;;;;;;;;;;10485418;28;20039;-75
2022/09/08 13:13:15;;;;;;;0.95;0.95;;;;;;;;;;10487604;28;20498;-74
2022/09/08 13:18:25;;;;;;;2.67;1.00;;;;;;;;;;10490086;28;20033;-74
2022/09/08 13:23:36;;;;;;;1.77;0.90;;;;;;;;;;10492929;28;20036;-75
2022/09/08 13:28:49;;;;;;;2.47;1.23;;;;;;;;;;10487008;28;20055;-74
2022/09/08 13:34:10;;;;;;;2.15;1.00;;;;;;;;;;10471376;28;20067;-75
2022/09/08 13:39:31;;;;;;;0.60;0.60;;;;;;;;;;10486682;28;20070;-75
2022/09/08 13:44:52;;;;;;;2.38;0.82;;;;;;;;;;10488565;28;20037;-74
2022/09/08 13:50:03;;;;;;;2.55;0.75;;;;;;;;;;10483788;28;20094;-74
2022/09/08 13:55:16;;;;;;;2.42;1.10;;;;;;;;;;10479350;28;20373;-75
2022/09/08 14:00:22;;;;;;;1.63;0.82;;;;;;;;;;10484662;28;20547;-76
2022/09/08 14:05:31;;;;;;;2.55;1.10;;;;;;;;;;10461110;28;20064;-75
2022/09/08 14:10:46;;;;;;;1.38;0.80;;;;;;;;;;10485470;28;20396;-75
2022/09/08 14:15:52;;;;;;;1.67;1.00;;;;;;;;;;10484097;28;20268;-75
2022/09/08 14:20:56;;;;;;;1.52;0.70;;;;;;;;;;10480813;28;20044;-76
2022/09/08 14:26:24;;;;;;;2.15;0.80;;;;;;;;;;10483424;28;20456;-75
2022/09/08 14:31:31;;;;;;;1.42;0.70;;;;;;;;;;10486367;28;20041;-76
2022/09/08 14:36:43;;;;;;;1.83;0.98;;;;;;;;;;10488889;28;20067;-75
2022/09/08 14:41:49;;;;;;;2.78;0.93;;;;;;;;;;10479329;28;20045;-75
2022/09/08 14:46:56;;;;;;;1.85;0.90;;;;;;;;;;10474384;28;20053;-76
2022/09/08 14:52:04;;;;;;;3.35;0.85;;;;;;;;;;10479771;28;20071;-75
2022/09/08 14:57:20;;;;;;;2.15;0.90;;;;;;;;;;10481739;28;20048;-76
2022/09/08 15:02:26;;;;;;;1.30;0.85;;;;;;;;;;10481580;28;20131;-75
2022/09/08 15:07:28;;;;;;;1.88;0.80;;;;;;;;;;10460732;28;20059;-75
2022/09/08 15:12:38;;;;;;;1.65;1.13;;;;;;;;;;10475335;28;20037;-75
2022/09/08 15:17:49;;;;;;;1.60;0.85;;;;;;;;;;10478383;28;20051;-77
2022/09/08 15:22:56;;;;;;;2.45;1.20;;;;;;;;;;10486419;28;20464;-76
2022/09/08 15:28:01;;;;;;;1.10;1.00;;;;;;;;;;10479839;28;20033;-75
2022/09/08 15:33:10;;;;;;;0.80;0.80;;;;;;;;;;10482634;28;20143;-75
2022/09/08 15:38:28;;;;;;;1.27;0.80;;;;;;;;;;10478041;28;20056;-76
2022/09/08 15:43:32;;;;;;;1.92;0.90;;;;;;;;;;10472738;28;20029;-75
2022/09/08 15:48:50;;;;;;;1.20;0.80;;;;;;;;;;10469365;28;20045;-75
2022/09/08 15:53:59;;;;;;;1.00;0.80;;;;;;;;;;10479389;28;20390;-76
2022/09/08 15:59:26;;;;;;;1.80;0.70;;;;;;;;;;10482956;28;20045;-75
2022/09/08 16:04:36;;;;;;;3.47;1.10;;;;;;;;;;10476432;28;20457;-75
2022/09/08 16:09:58;;;;;;;1.85;1.10;;;;;;;;;;10488506;28;20055;-75
2022/09/08 16:15:05;;;;;;;0.80;0.80;;;;;;;;;;10484882;28;20049;-74
2022/09/08 16:20:12;;;;;;;1.58;0.90;;;;;;;;;;10469433;28;20043;-76
2022/09/08 16:25:18;;;;;;;0.95;0.82;;;;;;;;;;10461555;28;20405;-75
2022/09/08 16:30:41;;;;;;;1.73;1.02;;;;;;;;;;10482325;28;20044;-76
2022/09/08 16:35:44;;;;;;;;;;;;;;;;;;10480883;28;20145;-74
2022/09/08 16:40:52;;;;;;;3.77;0.90;;;;;;;;;;10477479;28;19925;-76
2022/09/08 16:46:01;;;;;;;1.13;0.70;;;;;;;;;;10490455;28;20512;-74
2022/09/08 16:51:09;;;;;;;1.40;0.85;;;;;;;;;;10490736;28;20040;-76
2022/09/08 16:56:21;;;;;;;1.23;1.00;;;;;;;;;;10482216;28;20040;-74
2022/09/08 17:01:28;;;;;;;1.95;0.90;;;;;;;;;;10484683;28;20041;-74
2022/09/08 17:06:33;;;;;;;3.50;1.27;;;;;;;;;;10482946;28;20127;-74
2022/09/08 17:11:46;;;;;;;2.20;0.95;;;;;;;;;;10470596;28;20090;-74
2022/09/08 17:17:08;;;;;;;3.70;2.15;;;;;;;;;;10484060;28;20435;-74
2022/09/08 17:22:23;;;;;;;3.35;1.60;;;;;;;;;;10485343;28;20040;-75
2022/09/08 17:27:40;;;;;;;5.15;1.92;;;;;;;;;;10492910;28;20347;-75
2022/09/08 17:32:58;;;;;;;2.72;1.23;;;;;;;;;;10482461;28;20520;-74
2022/09/08 17:38:10;;;;;;;2.13;1.27;;;;;;;;;;10484603;28;20473;-75
2022/09/08 17:43:20;;;;;;;2.00;1.20;;;;;;;;;;10489402;28;20142;-75
2022/09/08 17:48:25;;;;;;;5.72;2.95;;;;;;;;;;10478996;28;20036;-76
2022/09/08 17:53:32;;;;;;;1.42;1.10;;;;;;;;;;10484312;28;20047;-77
2022/09/08 17:58:37;;;;;;;3.78;1.83;;;;;;;;;;10483099;28;20040;-76
2022/09/08 18:03:54;;;;;;;4.57;1.88;;;;;;;;;;10475995;28;20044;-76
2022/09/08 18:09:00;;;;;;;8.55;2.85;;;;;;;;;;10478015;28;20048;-77
2022/09/08 18:14:13;;;;;;;5.07;2.08;;;;;;;;;;10476562;28;20497;-74
2022/09/08 18:19:23;;;;;;;5.07;2.05;;;;;;;;;;10481633;28;20048;-74
2022/09/08 18:24:27;;;;;;;4.20;1.50;;;;;;;;;;10482843;28;20537;-75
2022/09/08 18:29:46;;;;;;;3.25;1.52;;;;;;;;;;10484654;28;20043;-75
2022/09/08 18:35:00;;;;;;;6.32;2.63;;;;;;;;;;10482365;28;20147;-75
2022/09/08 18:40:11;;;;;;;3.55;1.98;;;;;;;;;;10482903;28;20485;-76
2022/09/08 18:45:42;;;;;;;7.30;3.38;;;;;;;;;;10484313;28;20557;-74
2022/09/08 18:51:00;;;;;;;5.00;2.40;;;;;;;;;;10478114;28;20469;-81
2022/09/08 18:56:14;;;;;;;4.35;1.92;;;;;;;;;;10512487;28;20032;-80
2022/09/08 19:01:22;;;;;;;7.60;3.40;;;;;;;;;;10495038;28;20041;-79
2022/09/08 19:06:36;;;;;;;4.47;1.92;;;;;;;;;;10481846;28;20068;-79
2022/09/08 19:11:39;;;;;;;;;;;;;;;;;;10481082;28;20072;-71
2022/09/08 19:16:52;;;;;;;4.45;1.80;;;;;;;;;;10480026;28;20392;-71
2022/09/08 19:22:07;;;;;;;3.73;2.20;;;;;;;;;;10481834;28;20383;-72
2022/09/08 19:27:25;;;;;;;5.88;2.42;;;;;;;;;;10486219;28;20039;-73
2022/09/08 19:32:38;;;;;;;4.57;2.00;;;;;;;;;;10492007;28;20152;-72
2022/09/08 19:37:54;;;;;;;6.07;2.43;;;;;;;;;;10493114;28;20040;-72
2022/09/08 19:43:01;;;;;;;5.25;2.42;;;;;;;;;;10494202;28;20052;-72
2022/09/08 19:48:14;;;;;;;5.65;2.45;;;;;;;;;;10495926;28;20461;-80
2022/09/08 19:53:34;;;;;;;7.25;2.17;;;;;;;;;;10491304;28;20039;-80
2022/09/08 19:58:41;;;;;;;5.28;2.25;;;;;;;;;;10487231;28;20040;-81
2022/09/08 20:03:49;;;;;;;5.95;2.53;;;;;;;;;;10487530;28;20509;-80
2022/09/08 20:08:54;;;;;;;5.32;2.00;;;;;;;;;;10491615;28;20037;-80
2022/09/08 20:14:12;;;;;;;5.30;2.08;;;;;;;;;;10486374;28;20072;-80
2022/09/08 20:19:18;;;;;;;6.53;2.40;;;;;;;;;;10485716;28;20105;-79
2022/09/08 20:24:35;;;;;;;4.53;2.00;;;;;;;;;;10491488;28;20055;-80
2022/09/08 20:29:46;;;;;;;4.65;2.35;;;;;;;;;;10497019;28;20040;-79
2022/09/08 20:35:04;;;;;;;5.43;2.30;;;;;;;;;;10467151;28;20040;-80
2022/09/08 20:40:18;;;;;;;3.38;2.03;;;;;;;;;;10470506;28;20063;-79
2022/09/08 20:45:34;;;;;;;4.47;1.80;;;;;;;;;;10482374;28;20125;-79
2022/09/08 20:50:40;;;;;;;3.80;1.80;;;;;;;;;;10488062;28;20049;-78
2022/09/08 20:55:46;;;;;;;2.97;1.55;;;;;;;;;;10486528;28;20417;-79
2022/09/08 21:00:50;;;;;;;4.40;1.55;;;;;;;;;;10482516;28;20048;-79
2022/09/08 21:06:06;;;;;;;3.42;1.75;;;;;;;;;;10484671;28;20083;-79
2022/09/08 21:11:14;;;;;;;3.17;1.52;;;;;;;;;;10472306;28;20500;-79
2022/09/08 21:16:21;;;;;;;2.10;1.60;;;;;;;;;;10485766;28;20551;-79
2022/09/08 21:21:32;;;;;;;2.65;1.30;;;;;;;;;;10484196;28;20491;-79
2022/09/08 21:26:37;;;;;;;2.80;1.38;;;;;;;;;;10486706;28;20482;-78
2022/09/08 21:31:46;;;;;;;0.75;0.75;;;;;;;;;;10484086;28;20048;-78
2022/09/08 21:36:54;;;;;;;1.88;1.30;;;;;;;;;;10486962;28;20048;-78
2022/09/08 21:41:59;;;;;;;5.07;1.60;;;;;;;;;;10482020;28;20141;-78
2022/09/08 21:47:15;;;;;;;4.70;1.38;;;;;;;;;;10483143;28;20041;-79
2022/09/08 21:52:22;;;;;;;2.47;1.15;;;;;;;;;;10487203;28;20458;-78
2022/09/08 21:57:29;;;;;;;2.63;1.50;;;;;;;;;;10487625;28;20033;-78
2022/09/08 22:02:34;;;;;;;2.30;1.40;;;;;;;;;;10480785;28;20036;-77
2022/09/08 22:07:42;;;;;;;4.22;1.42;;;;;;;;;;10484258;28;20040;-78
2022/09/08 22:12:48;;;;;;;1.73;1.25;;;;;;;;;;10483871;28;20106;-78
2022/09/08 22:17:55;;;;;;;1.85;1.42;;;;;;;;;;10479388;28;20307;-78
2022/09/08 22:23:02;;;;;;;5.43;2.03;;;;;;;;;;10483709;28;20052;-78
2022/09/08 22:28:06;;;;;;;3.80;1.60;;;;;;;;;;10486964;28;20048;-78
2022/09/08 22:33:20;;;;;;;2.50;1.52;;;;;;;;;;10465173;28;20379;-80
2022/09/08 22:38:34;;;;;;;2.63;1.58;;;;;;;;;;10478147;28;20136;-78
2022/09/08 22:43:47;;;;;;;2.58;1.20;;;;;;;;;;10486134;28;20072;-79
2022/09/08 22:48:54;;;;;;;5.27;1.50;;;;;;;;;;10486454;28;20040;-79
2022/09/08 22:54:00;;;;;;;3.53;1.52;;;;;;;;;;10484623;28;20106;-79
2022/09/08 22:59:19;;;;;;;3.47;1.27;;;;;;;;;;10486743;28;20421;-80
2022/09/08 23:04:24;;;;;;;4.93;1.67;;;;;;;;;;10498696;28;20127;-79
2022/09/08 23:09:28;;;;;;;1.38;1.10;;;;;;;;;;10499167;28;20024;-78
2022/09/08 23:14:35;;;;;;;4.05;1.48;;;;;;;;;;10501395;28;20166;-79
2022/09/08 23:19:40;;;;;;;2.50;1.40;;;;;;;;;;10499113;28;20049;-79
2022/09/08 23:24:46;;;;;;;2.10;1.25;;;;;;;;;;10497854;28;20048;-78
2022/09/08 23:29:53;;;;;;;2.25;1.33;;;;;;;;;;10508743;28;20496;-79
2022/09/08 23:35:00;;;;;;;1.95;1.30;;;;;;;;;;10496055;28;20406;-79
2022/09/08 23:40:10;;;;;;;3.25;1.60;;;;;;;;;;10494731;28;20044;-79
2022/09/08 23:45:14;;;;;;;2.92;1.25;;;;;;;;;;10497206;28;20040;-78
2022/09/08 23:50:18;;;;;;;1.77;1.30;;;;;;;;;;10501128;28;20052;-78
2022/09/08 23:55:23;;;;;;;2.53;1.40;;;;;;;;;;10473970;28;20040;-78
